Angeles - Pampanga, Philippines

9:52 AM PHT on October 26, 2014 (GMT +0800)
Subic Bay International | Change Station
CLOSE
Current Station
Airport
Location: Subic Bay,
Elevation: 62 ft
Nearby Weather Stations

Elev 62 ft 14.79 °N, 120.27 °E | Updated 52 minutes ago

Scattered Clouds
Scattered Clouds
84 °F
Feels Like 91 °F
N
7
Wind Variable Wind from ENE

Today
High -- | Low -- °F
--% Chance of Precip.
Yesterday
High -- | Low -- °F
Precip. -- in
5:51 AM 5:31 PM
Waxing Crescent, 5% visible
Pressure 29.92 in
Visibility 6.2 miles
Clouds Few 2000 ft
Scattered Clouds 30000 ft
Heat Index 91 °F
Dew Point 73 °F
Humidity 70%
Rainfall 0.00 in
Snow Depth Not available.
UV 6 out of 12
Pollen Not available.
Air Quality Not available.
Flu Activity Not available.
METAR RPLB 260100Z 07006KT 9999 FEW020 SCT300 29/23 Q1013 NOSIG

More Conditions Fewer Conditions

Pressure 29.92 in
Visibility 6.2 miles
Clouds Few 2000 ft
Scattered Clouds 30000 ft
Heat Index 91 °F
Dew Point 73 °F
Humidity 70%
Rainfall 0.00 in
Snow Depth Not available.
UV 6 out of 12
Pollen Not available.
Air Quality Not available.
Flu Activity Not available.
METAR RPLB 260100Z 07006KT 9999 FEW020 SCT300 29/23 Q1013 NOSIG

More Conditions Fewer Conditions

10-Day Weather Forecast

Almanac

Astronomy

Oct. 26, 2014 Rise Set
Actual Time 5:51 AM PHT 5:31 PM PHT
Civil Twilight 5:29 AM PHT 5:53 PM PHT
Nautical Twilight 5:04 AM PHT 6:18 PM PHT
Astronomical Twilight 4:39 AM PHT 6:43 PM PHT
Moon 7:42 AM PHT 7:28 PM PHT
Length of Visible Light 12h 23m
Length of Day
11h 39m
Tomorrow will be 0m 46s shorter.
Waxing Crescent, 5% of the Moon is Illuminated
Oct 25
Waxing Crescent
Oct 30
First Quarter
Nov 6
Full
Nov 14
Last Quarter
Nov 22
New

Yesterday's Extremes

Country Highs Country Lows

Community

WunderPhotos

Upload Photos

1,765,071 photos uploaded!

Nearby

Snow Depth

Not available.

Earthquake Activity

City Distance Mag. Time & Date
No recent earthquake activity has been reported nearby.
Minimum magnitude displayed is 2.5.

Coastal Water Temperatures

Place Temperature
No Stations Reporting

Nearby Weather Stations